Time;durP1;ratioP1;P1;durP2;ratioP2;P2;SDS_P1;SDS_P2;PMS_P1;PMS_P2;Temp;Humidity;BMP_temperature;BMP_pressure;BME280_temperature;BME280_humidity;BME280_pressure;Samples;Min_cycle;Max_cycle;Signal;HPM_P1;HPM_P2
2020/12/22 00:00:36;;;;;;;77.60;35.25;;;;;;;-0.87;68.33;97646.80;1735010;82;21052;-82
2020/12/22 00:03:06;;;;;;;73.28;33.98;;;;;;;-0.78;68.25;97643.48;1734479;82;21049;-80
2020/12/22 00:05:35;;;;;;;64.58;31.52;;;;;;;-0.72;68.13;97643.27;1734844;82;21326;-81
2020/12/22 00:08:12;;;;;;;55.25;27.82;;;;;;;-0.70;67.83;97641.03;1734288;82;21097;-80
2020/12/22 00:10:41;;;;;;;49.60;25.12;;;;;;;-0.75;67.73;97640.34;1733633;82;21144;-81
2020/12/22 00:13:10;;;;;;;42.67;20.90;;;;;;;-0.81;67.74;97639.27;1734037;80;21255;-80
2020/12/22 00:15:41;;;;;;;35.35;19.35;;;;;;;-0.84;68.01;97641.95;1735716;82;21657;-82
2020/12/22 00:18:12;;;;;;;40.12;19.70;;;;;;;-0.79;68.00;97645.67;1735704;82;21315;-81
2020/12/22 00:20:41;;;;;;;36.58;19.30;;;;;;;-0.75;68.08;97639.51;1735876;82;21112;-80
2020/12/22 00:23:10;;;;;;;33.90;17.92;;;;;;;-0.75;68.13;97636.92;1735864;82;21156;-80
2020/12/22 00:25:45;;;;;;;40.40;19.98;;;;;;;-0.80;68.04;97647.42;1735763;82;21140;-81
2020/12/22 00:28:14;;;;;;;33.88;17.55;;;;;;;-0.87;68.26;97643.36;1735972;82;21478;-81
2020/12/22 00:30:45;;;;;;;38.33;18.32;;;;;;;-0.86;68.64;97642.46;1736185;82;22450;-79
2020/12/22 00:33:14;;;;;;;42.67;22.58;;;;;;;-0.79;68.73;97634.04;1735568;82;21503;-81
2020/12/22 00:35:43;;;;;;;48.40;23.83;;;;;;;-0.69;68.89;97625.91;1735631;82;21089;-81
2020/12/22 00:38:12;;;;;;;54.00;24.98;;;;;;;-0.52;68.76;97627.89;1735739;82;21136;-81
2020/12/22 00:40:41;;;;;;;44.23;23.20;;;;;;;-0.39;68.59;97625.24;1735776;82;21191;-81
2020/12/22 00:43:10;;;;;;;60.10;29.12;;;;;;;-0.25;68.42;97620.00;1736085;82;21219;-80
2020/12/22 00:45:38;;;;;;;59.70;30.20;;;;;;;-0.18;68.23;97619.70;1736075;82;21611;-81
2020/12/22 00:48:10;;;;;;;62.25;32.15;;;;;;;-0.17;68.32;97621.87;1712059;82;21140;-81
2020/12/22 00:50:39;;;;;;;72.00;37.45;;;;;;;-0.16;68.31;97617.92;1735729;82;21199;-82
2020/12/22 00:53:08;;;;;;;83.42;42.78;;;;;;;-0.11;68.45;97619.89;1735878;82;21780;-79
2020/12/22 00:55:38;;;;;;;71.50;35.33;;;;;;;-0.07;68.30;97617.55;1735730;82;21426;-81
2020/12/22 00:58:08;;;;;;;54.45;30.60;;;;;;;-0.04;68.52;97612.27;1735653;82;21132;-80
2020/12/22 01:00:38;;;;;;;58.30;30.40;;;;;;;0.08;68.41;97604.94;1736117;82;21069;-80
2020/12/22 01:03:08;;;;;;;60.73;32.88;;;;;;;0.17;68.21;97614.92;1736302;82;21514;-81
2020/12/22 01:05:36;;;;;;;55.75;28.98;;;;;;;0.23;68.28;97606.45;1735744;82;21522;-81
2020/12/22 01:08:05;;;;;;;63.40;30.65;;;;;;;0.22;68.05;97612.54;1735824;82;22288;-81
2020/12/22 01:10:36;;;;;;;51.30;28.10;;;;;;;0.19;68.35;97608.80;1735791;82;21117;-81
2020/12/22 01:13:04;;;;;;;52.90;28.32;;;;;;;0.22;68.41;97606.52;1735636;82;21066;-80
2020/12/22 01:15:33;;;;;;;57.23;29.45;;;;;;;0.22;68.38;97605.23;1735833;82;21013;-81
2020/12/22 01:18:01;;;;;;;60.40;31.30;;;;;;;0.19;68.28;97594.55;1736261;82;21156;-82
2020/12/22 01:20:32;;;;;;;57.05;32.15;;;;;;;0.14;68.46;97592.59;1736016;82;22230;-81
2020/12/22 01:23:01;;;;;;;63.33;31.70;;;;;;;0.14;68.71;97595.62;1735753;82;21064;-81
2020/12/22 01:25:30;;;;;;;59.73;32.33;;;;;;;0.18;68.95;97593.32;1736386;82;21128;-80
2020/12/22 01:27:59;;;;;;;62.62;35.20;;;;;;;0.28;68.92;97587.30;1736015;82;21267;-81
2020/12/22 01:30:28;;;;;;;63.83;35.73;;;;;;;0.34;68.85;97585.77;1735811;82;22150;-81
2020/12/22 01:32:57;;;;;;;60.67;35.40;;;;;;;0.44;68.79;97589.22;1736464;82;21215;-81
2020/12/22 01:35:26;;;;;;;62.78;34.35;;;;;;;0.50;68.55;97582.48;1736319;82;21100;-81
2020/12/22 01:37:54;;;;;;;59.15;32.48;;;;;;;0.55;68.32;97581.47;1736411;82;21490;-82
2020/12/22 01:40:23;;;;;;;54.58;33.65;;;;;;;0.55;68.28;97578.88;1735987;82;21096;-82
2020/12/22 01:42:52;;;;;;;59.77;32.90;;;;;;;0.61;68.26;97576.03;1736267;82;21579;-81
2020/12/22 01:45:23;;;;;;;54.33;30.20;;;;;;;0.68;68.13;97570.97;1736111;82;21415;-82
2020/12/22 01:47:51;;;;;;;56.65;30.30;;;;;;;0.75;67.93;97571.09;1736197;82;21140;-81
2020/12/22 01:50:20;;;;;;;49.53;28.52;;;;;;;0.74;67.83;97570.26;1736088;82;21184;-82
2020/12/22 01:52:49;;;;;;;52.45;29.05;;;;;;;0.73;67.79;97575.06;1736383;82;21121;-80
2020/12/22 01:55:19;;;;;;;46.98;26.93;;;;;;;0.74;67.80;97565.53;1716037;82;21184;-80
2020/12/22 01:57:48;;;;;;;46.65;27.30;;;;;;;0.76;67.73;97571.03;1736205;82;21370;-80
2020/12/22 02:00:17;;;;;;;44.13;24.87;;;;;;;0.71;67.78;97570.41;1736512;82;21937;-80
2020/12/22 02:02:46;;;;;;;34.50;20.25;;;;;;;0.73;67.89;97564.69;1736191;82;21072;-82
2020/12/22 02:05:15;;;;;;;32.67;19.23;;;;;;;0.71;67.55;97564.34;1736971;82;21525;-82
2020/12/22 02:07:44;;;;;;;33.58;19.05;;;;;;;0.64;67.74;97561.63;1736339;82;21040;-80
2020/12/22 02:10:13;;;;;;;30.75;18.23;;;;;;;0.52;67.85;97562.53;1736715;82;21299;-80
2020/12/22 02:12:42;;;;;;;37.98;21.25;;;;;;;0.45;68.12;97562.40;1735999;82;21159;-80
2020/12/22 02:15:11;;;;;;;41.28;20.50;;;;;;;0.42;68.24;97557.81;1735676;82;21120;-81
2020/12/22 02:17:40;;;;;;;30.37;17.35;;;;;;;0.41;68.42;97556.10;1735747;82;21116;-80
2020/12/22 02:20:09;;;;;;;43.28;18.00;;;;;;;0.45;68.57;97555.08;1735993;82;21192;-82
2020/12/22 02:22:38;;;;;;;29.65;18.00;;;;;;;0.56;68.52;97554.64;1736164;82;22252;-82
2020/12/22 02:25:16;;;;;;;32.13;19.70;;;;;;;0.63;68.10;97555.61;1735876;82;21175;-81
2020/12/22 02:27:46;;;;;;;31.80;18.70;;;;;;;0.66;67.89;97551.61;1735583;82;21501;-81
2020/12/22 02:30:15;;;;;;;30.70;17.27;;;;;;;0.65;67.80;97556.41;1736018;82;21061;-82
2020/12/22 02:32:44;;;;;;;28.07;16.97;;;;;;;0.65;67.85;97555.11;1736034;82;21049;-79
2020/12/22 02:35:14;;;;;;;29.52;16.97;;;;;;;0.72;67.82;97546.16;1735693;82;21283;-83
2020/12/22 02:37:42;;;;;;;26.23;16.85;;;;;;;0.70;67.37;97544.52;1735832;82;21132;-80
2020/12/22 02:40:11;;;;;;;26.90;16.80;;;;;;;0.61;67.68;97539.29;1735659;82;21105;-79
2020/12/22 02:42:41;;;;;;;27.35;15.85;;;;;;;0.61;67.64;97543.63;1736448;82;21195;-80
2020/12/22 02:45:10;;;;;;;28.40;17.20;;;;;;;0.55;67.80;97546.48;1736008;82;21112;-80
2020/12/22 02:47:40;;;;;;;25.57;14.93;;;;;;;0.57;68.02;97541.61;1736344;82;21184;-80
2020/12/22 02:50:11;;;;;;;26.75;16.57;;;;;;;0.64;67.95;97538.30;1735624;82;21192;-80
2020/12/22 02:52:41;;;;;;;27.42;16.85;;;;;;;0.68;67.84;97534.23;1735919;82;21152;-82
2020/12/22 02:55:10;;;;;;;27.22;16.52;;;;;;;0.74;67.64;97539.61;1735620;82;21235;-80
2020/12/22 02:57:39;;;;;;;25.27;15.78;;;;;;;0.80;67.47;97535.00;1735966;82;21167;-81
2020/12/22 03:00:08;;;;;;;25.35;16.52;;;;;;;0.91;67.23;97533.25;1735442;82;21371;-80
2020/12/22 03:02:37;;;;;;;26.35;16.57;;;;;;;0.94;66.96;97530.96;1735526;82;21072;-80
2020/12/22 03:05:07;;;;;;;29.65;18.40;;;;;;;0.89;66.72;97531.19;1735739;82;21080;-82
2020/12/22 03:07:36;;;;;;;35.23;19.82;;;;;;;0.82;67.05;97534.08;1735772;82;21568;-80
2020/12/22 03:10:14;;;;;;;28.92;18.32;;;;;;;0.85;67.18;97528.78;1735716;82;21061;-81
2020/12/22 03:12:43;;;;;;;35.25;20.75;;;;;;;0.87;67.14;97526.50;1735472;82;21202;-80
2020/12/22 03:15:12;;;;;;;33.33;19.40;;;;;;;0.90;67.17;97528.13;1735414;82;21597;-81
2020/12/22 03:17:41;;;;;;;32.15;18.20;;;;;;;0.88;67.08;97523.45;1735537;82;21135;-81
2020/12/22 03:20:11;;;;;;;30.02;17.98;;;;;;;0.77;67.34;97513.53;1735782;82;21116;-81
2020/12/22 03:22:42;;;;;;;29.85;17.27;;;;;;;0.81;67.47;97513.80;1736200;82;21613;-81
2020/12/22 03:25:11;;;;;;;29.52;18.05;;;;;;;0.86;67.42;97507.13;1736087;82;21379;-82
2020/12/22 03:27:44;;;;;;;33.67;17.95;;;;;;;0.88;67.50;97504.84;1736726;82;21704;-82
2020/12/22 03:30:15;;;;;;;32.33;16.62;;;;;;;0.93;67.55;97500.30;1737451;82;21088;-81
2020/12/22 03:32:44;;;;;;;38.63;18.85;;;;;;;0.98;67.53;97491.03;1736637;82;21077;-82
2020/12/22 03:35:13;;;;;;;34.33;17.87;;;;;;;1.04;67.53;97486.86;1737518;82;21097;-81
2020/12/22 03:37:42;;;;;;;32.70;18.02;;;;;;;1.08;67.46;97487.13;1737644;82;21204;-81
2020/12/22 03:40:12;;;;;;;31.65;17.90;;;;;;;1.15;67.32;97488.52;1738933;82;21155;-81
2020/12/22 03:42:41;;;;;;;32.63;18.37;;;;;;;1.17;67.28;97493.17;1739028;82;21121;-81
2020/12/22 03:45:10;;;;;;;30.27;17.65;;;;;;;1.17;67.10;97490.58;1737409;82;21148;-82
2020/12/22 03:47:41;;;;;;;30.50;16.05;;;;;;;1.18;67.14;97486.23;1737415;82;21644;-80
2020/12/22 03:50:11;;;;;;;26.23;15.68;;;;;;;1.19;66.92;97479.70;1735877;82;22244;-82
2020/12/22 03:52:40;;;;;;;27.58;15.68;;;;;;;1.19;66.87;97479.70;1738636;82;21116;-81
2020/12/22 03:55:09;;;;;;;27.32;15.43;;;;;;;1.20;66.73;97477.95;1738427;82;21151;-80
2020/12/22 03:57:38;;;;;;;25.17;15.43;;;;;;;1.10;66.93;97484.45;1739315;82;21045;-82
2020/12/22 04:00:10;;;;;;;27.50;16.12;;;;;;;1.10;67.23;97481.86;1738757;82;21056;-80
2020/12/22 04:02:38;;;;;;;27.45;15.18;;;;;;;1.11;67.12;97470.57;1738795;82;22165;-80
2020/12/22 04:05:07;;;;;;;28.17;15.68;;;;;;;1.12;67.22;97474.84;1738764;82;21076;-80
2020/12/22 04:07:37;;;;;;;28.85;16.02;;;;;;;1.12;67.21;97474.84;1739193;82;21069;-81
2020/12/22 04:10:07;;;;;;;28.30;16.60;;;;;;;1.11;67.31;97464.08;1738425;82;21022;-81
2020/12/22 04:12:37;;;;;;;26.62;15.58;;;;;;;1.14;67.30;97466.55;1739049;82;21156;-82
2020/12/22 04:15:06;;;;;;;25.43;15.10;;;;;;;1.14;67.22;97463.50;1738713;82;21361;-81
2020/12/22 04:17:36;;;;;;;28.47;15.28;;;;;;;1.11;67.12;97462.78;1738805;82;21065;-80
2020/12/22 04:20:05;;;;;;;22.85;13.95;;;;;;;1.05;67.17;97460.02;1718407;82;21199;-80
2020/12/22 04:22:33;;;;;;;26.42;14.47;;;;;;;1.06;67.20;97459.09;1739504;82;21088;-81
2020/12/22 04:25:04;;;;;;;26.87;15.78;;;;;;;1.03;67.15;97456.66;1739538;82;21101;-81
2020/12/22 04:27:34;;;;;;;24.05;14.83;;;;;;;0.95;67.26;97453.13;1739293;82;21421;-80
2020/12/22 04:30:04;;;;;;;24.72;14.73;;;;;;;0.86;67.45;97456.56;1739638;82;21148;-80
2020/12/22 04:32:35;;;;;;;31.07;19.70;;;;;;;0.74;67.61;97454.91;1736599;82;21124;-80
2020/12/22 04:35:07;;;;;;;29.05;18.92;;;;;;;0.67;67.96;97452.66;1736829;82;21049;-81
2020/12/22 04:37:37;;;;;;;37.93;23.22;;;;;;;0.61;67.96;97449.88;1738554;82;21049;-80
2020/12/22 04:40:06;;;;;;;41.23;25.17;;;;;;;0.54;68.25;97445.88;1738720;82;21357;-80
2020/12/22 04:42:35;;;;;;;39.03;25.00;;;;;;;0.52;68.37;97438.59;1738553;82;21146;-81
2020/12/22 04:45:04;;;;;;;40.08;25.77;;;;;;;0.48;68.52;97439.20;1737487;82;21085;-81
2020/12/22 04:47:33;;;;;;;43.98;25.27;;;;;;;0.46;68.58;97437.11;1737318;82;21565;-82
2020/12/22 04:50:04;;;;;;;38.65;23.65;;;;;;;0.44;68.65;97438.94;1716767;82;21144;-82
2020/12/22 04:52:33;;;;;;;37.08;21.75;;;;;;;0.41;68.72;97433.03;1736276;82;21280;-82
2020/12/22 04:55:03;;;;;;;37.83;22.40;;;;;;;0.35;68.81;97426.37;1735982;82;21172;-81
2020/12/22 04:57:32;;;;;;;37.35;22.22;;;;;;;0.31;68.82;97427.88;1736085;82;21140;-83
2020/12/22 05:00:02;;;;;;;37.67;23.35;;;;;;;0.22;69.04;97429.10;1736218;82;21215;-80
2020/12/22 05:02:32;;;;;;;38.48;22.50;;;;;;;0.14;69.19;97427.30;1736219;82;21096;-80
2020/12/22 05:05:02;;;;;;;38.83;23.32;;;;;;;0.12;69.37;97423.91;1716143;82;21373;-81
2020/12/22 05:07:33;;;;;;;40.33;22.22;;;;;;;0.02;69.52;97425.23;1736254;82;21115;-79
2020/12/22 05:10:11;;;;;;;40.03;22.22;;;;;;;-0.03;69.87;97419.77;1736024;82;21112;-80
2020/12/22 05:12:42;;;;;;;42.78;23.80;;;;;;;0.02;70.11;97418.30;1736097;82;21200;-81
2020/12/22 05:15:13;;;;;;;39.48;22.00;;;;;;;0.06;70.01;97413.81;1735878;81;21137;-81
2020/12/22 05:17:45;;;;;;;35.80;19.98;;;;;;;0.07;69.95;97408.59;1735418;82;21193;-83
2020/12/22 05:20:18;;;;;;;45.83;23.45;;;;;;;0.11;70.01;97411.42;1735496;82;21033;-82
2020/12/22 05:22:49;;;;;;;41.45;21.57;;;;;;;0.16;69.92;97413.36;1734929;82;21180;-81
2020/12/22 05:25:20;;;;;;;45.12;21.50;;;;;;;0.24;69.92;97406.59;1734789;82;21156;-82
2020/12/22 05:27:52;;;;;;;41.40;22.45;;;;;;;0.31;69.77;97414.48;1734615;82;21108;-82
2020/12/22 05:30:21;;;;;;;47.53;24.25;;;;;;;0.38;69.57;97425.41;1714678;82;21202;-81
2020/12/22 05:32:51;;;;;;;42.08;22.13;;;;;;;0.46;69.47;97430.64;1734732;82;21128;-81
2020/12/22 05:35:21;;;;;;;37.45;20.80;;;;;;;0.55;69.31;97437.19;1734976;82;21120;-81
2020/12/22 05:37:51;;;;;;;35.43;19.25;;;;;;;0.58;68.98;97434.45;1735092;82;21148;-82
2020/12/22 05:40:25;;;;;;;32.53;19.37;;;;;;;0.65;69.04;97430.70;1735090;82;21135;-82
2020/12/22 05:42:54;;;;;;;38.25;21.15;;;;;;;0.74;68.72;97425.09;1692668;81;21379;-81
2020/12/22 05:45:23;;;;;;;36.42;20.00;;;;;;;0.76;68.64;97431.04;1735470;82;21172;-81
2020/12/22 05:47:54;;;;;;;54.05;22.67;;;;;;;0.76;68.72;97422.42;1735358;82;21100;-82
2020/12/22 05:50:29;;;;;;;60.92;27.85;;;;;;;0.79;69.02;97423.59;1736116;82;21041;-85
2020/12/22 05:53:02;;;;;;;62.10;32.88;;;;;;;0.75;68.86;97420.75;1715572;82;21101;-85
2020/12/22 05:55:38;;;;;;;53.23;30.37;;;;;;;0.70;68.87;97407.98;1715738;82;21368;-82
2020/12/22 05:58:13;;;;;;;53.58;29.10;;;;;;;0.70;68.93;97412.33;1735685;82;21100;-81
2020/12/22 06:00:55;;;;;;;62.88;37.42;;;;;;;0.73;68.86;97397.49;1735948;82;21085;-82
2020/12/22 06:03:27;;;;;;;54.45;33.88;;;;;;;0.73;68.74;97394.90;1735262;81;21198;-82
2020/12/22 06:05:58;;;;;;;65.90;39.03;;;;;;;0.67;68.59;97395.63;1735904;81;21033;-82
2020/12/22 06:08:28;;;;;;;57.73;33.75;;;;;;;0.49;68.87;97389.06;1735564;81;21203;-82
2020/12/22 06:11:02;;;;;;;60.63;35.63;;;;;;;0.38;69.24;97383.51;1729637;81;21200;-82
2020/12/22 06:13:36;;;;;;;64.45;37.83;;;;;;;0.35;69.44;97387.51;1714913;82;21145;-85
2020/12/22 06:16:22;;;;;;;74.60;41.63;;;;;;;0.34;69.60;97387.13;1728785;81;21092;-84
2020/12/22 06:19:42;;;;;;;79.50;43.30;;;;;;;0.36;69.65;97382.74;1709489;82;21196;-83
2020/12/22 06:23:05;;;;;;;86.35;46.53;;;;;;;0.26;69.63;97382.75;1701192;82;21139;-81
2020/12/22 06:25:42;;;;;;;84.42;42.62;;;;;;;0.16;69.92;97389.22;1667529;84;21161;-84
2020/12/22 06:28:41;;;;;;;77.92;41.25;;;;;;;0.09;70.26;97391.69;1704676;82;21159;-81
2020/12/22 06:32:27;;;;;;;77.35;40.78;;;;;;;0.00;70.40;97387.75;1701979;83;21209;-83
2020/12/22 06:35:39;;;;;;;81.42;41.50;;;;;;;-0.10;70.75;97392.47;1725647;79;21151;-83
2020/12/22 06:39:04;;;;;;;78.85;40.75;;;;;;;-0.14;70.94;97388.77;1728710;82;21376;-84
2020/12/22 06:41:47;;;;;;;74.05;39.48;;;;;;;-0.18;71.21;97377.69;1692220;83;21514;-84
2020/12/22 06:45:23;;;;;;;75.32;40.35;;;;;;;-0.20;70.85;97367.02;1697281;83;21112;-83
2020/12/22 06:48:06;;;;;;;88.20;49.08;;;;;;;-0.28;71.00;97373.81;1725090;81;21082;-83
2020/12/22 06:51:01;;;;;;;115.03;59.67;;;;;;;-0.40;71.01;97373.03;1730122;82;21058;-84
2020/12/22 06:54:03;;;;;;;162.57;82.42;;;;;;;-0.58;71.61;97381.08;1701249;84;22227;-84
2020/12/22 06:57:50;;;;;;;158.90;84.40;;;;;;;-0.64;72.07;97377.00;1724169;81;21184;-83
2020/12/22 07:04:21;;;;;;;112.72;60.88;;;;;;;-0.51;71.98;97371.33;1747034;78;21173;-84
2020/12/22 07:07:59;;;;;;;146.22;75.00;;;;;;;-0.47;71.83;97374.19;1768028;77;21245;-83
2020/12/22 07:11:27;;;;;;;138.25;81.72;;;;;;;-0.54;71.97;97373.56;1753872;77;21277;-83
2020/12/22 07:53:43;;;;;;;98.27;52.48;;;;;;;-0.16;71.05;97353.89;1768313;77;22704;-84
2020/12/22 15:45:45;;;;;;;30.00;19.73;;;;;;;3.07;66.84;96962.23;1664850;80;21245;31
2020/12/22 15:52:53;;;;;;;30.55;18.67;;;;;;;3.17;66.57;96967.25;1607438;83;21015;-82
2020/12/22 15:56:06;;;;;;;34.18;20.12;;;;;;;3.19;66.33;96961.01;1651528;86;21097;-82
2020/12/22 15:59:42;;;;;;;31.97;18.67;;;;;;;3.19;66.51;96957.10;1651010;85;21227;-81
2020/12/22 16:03:11;;;;;;;39.20;20.25;;;;;;;3.25;66.35;96960.27;1598667;85;21302;-82
2020/12/22 16:06:10;;;;;;;36.80;21.68;;;;;;;3.31;66.23;96955.98;1651516;85;21207;-83
2020/12/22 16:09:30;;;;;;;40.58;23.83;;;;;;;3.33;66.22;96955.44;1656017;82;21145;-83
2020/12/22 16:12:42;;;;;;;39.40;22.07;;;;;;;3.38;66.12;96951.62;1741082;80;21066;-81
2020/12/22 16:15:34;;;;;;;40.17;23.87;;;;;;;3.37;66.01;96948.62;1711218;83;21169;-82
2020/12/22 16:18:32;;;;;;;41.37;22.42;;;;;;;3.41;65.94;96949.27;1708572;83;21189;-82
2020/12/22 16:21:06;;;;;;;34.08;20.55;;;;;;;3.45;65.85;96942.95;1728446;83;21300;-82
2020/12/22 16:23:38;;;;;;;32.67;20.90;;;;;;;3.45;65.89;96933.84;1719893;81;21358;-83
2020/12/22 16:26:19;;;;;;;37.93;23.02;;;;;;;3.45;65.87;96931.23;1759824;81;21063;-82
2020/12/22 16:29:06;;;;;;;41.73;25.35;;;;;;;3.45;66.17;96919.52;1760088;81;21065;-83
2020/12/22 16:31:38;;;;;;;41.00;23.95;;;;;;;3.46;66.02;96925.09;1760249;81;21071;-82
2020/12/22 16:34:12;;;;;;;40.88;24.80;;;;;;;3.40;65.91;96912.00;1759768;81;21143;-82
2020/12/22 16:36:44;;;;;;;41.15;25.40;;;;;;;3.31;66.12;96911.73;1760180;79;22334;-82
2020/12/22 16:39:18;;;;;;;40.20;22.95;;;;;;;3.28;66.38;96910.64;1760046;81;21123;-82
2020/12/22 16:41:50;;;;;;;43.58;22.37;;;;;;;3.31;66.37;96911.27;1739627;81;21099;-83
2020/12/22 16:44:23;;;;;;;;;;;;;;;3.34;66.28;96905.88;1763893;81;21605;-83
2020/12/22 16:46:59;;;;;;;45.38;24.45;;;;;;;3.35;66.26;96906.71;1761172;81;20232;-83
2020/12/22 16:49:29;;;;;;;39.67;23.32;;;;;;;3.30;66.46;96904.39;1782210;80;21488;-84
2020/12/22 16:52:03;;;;;;;34.23;21.07;;;;;;;3.31;66.42;96904.76;1760936;81;21176;-83
2020/12/22 16:54:36;;;;;;;34.60;20.75;;;;;;;3.27;66.39;96903.30;1756904;81;21490;-84
2020/12/22 16:57:35;;;;;;;33.95;20.97;;;;;;;3.26;66.53;96905.54;1781997;80;21101;-82
2020/12/22 17:00:27;;;;;;;31.70;19.30;;;;;;;3.21;66.58;96901.08;1760464;81;21254;-81
2020/12/22 17:03:00;;;;;;;33.23;20.72;;;;;;;3.18;66.62;96900.79;1781736;80;21108;-83
2020/12/22 17:05:31;;;;;;;34.47;20.07;;;;;;;3.10;66.85;96908.72;1761361;81;21124;-82
2020/12/22 17:08:04;;;;;;;32.45;20.92;;;;;;;3.07;66.95;96909.73;1782879;80;21052;-83
2020/12/22 17:10:43;;;;;;;34.98;20.02;;;;;;;3.09;67.16;96897.95;1760455;79;21099;-81
2020/12/22 17:13:13;;;;;;;35.45;22.98;;;;;;;3.13;67.18;96907.21;1737082;79;21025;-82
2020/12/22 17:15:54;;;;;;;35.73;22.02;;;;;;;3.17;67.17;96898.30;1718156;81;22336;-83
2020/12/22 17:18:26;;;;;;;41.60;23.57;;;;;;;3.17;66.96;96898.30;1703445;83;21176;-82
2020/12/22 17:21:04;;;;;;;38.50;22.17;;;;;;;3.11;67.21;96905.18;1706003;82;21204;-82
2020/12/22 17:23:42;;;;;;;36.20;23.42;;;;;;;3.10;67.34;96906.12;1704970;82;21237;-82
2020/12/22 17:26:26;;;;;;;39.25;23.83;;;;;;;3.09;67.50;96892.75;1681809;83;21123;-83
2020/12/22 17:29:18;;;;;;;37.05;22.65;;;;;;;3.10;67.58;96894.41;1700278;83;26587;-83
2020/12/22 17:31:54;;;;;;;39.03;22.98;;;;;;;3.12;67.70;96899.87;1707001;82;21139;-84
2020/12/22 17:34:27;;;;;;;37.23;22.70;;;;;;;3.17;67.58;96892.63;1719956;82;21107;-83
2020/12/22 17:37:18;;;;;;;42.25;24.30;;;;;;;3.23;67.43;96897.08;1739133;82;21072;-81
2020/12/22 17:39:49;;;;;;;44.77;24.98;;;;;;;3.22;67.40;96891.04;1740452;82;21187;-82
2020/12/22 17:42:21;;;;;;;36.65;23.83;;;;;;;3.20;67.46;96891.14;1741054;82;21286;-82
2020/12/22 17:44:57;;;;;;;36.35;22.77;;;;;;;3.16;67.66;96881.84;1741255;82;21072;-84
2020/12/22 17:47:47;;;;;;;39.58;24.90;;;;;;;3.18;67.72;96884.34;1776413;80;21070;-83
2020/12/22 17:50:19;;;;;;;38.83;25.23;;;;;;;3.12;67.85;96869.13;1775561;81;21193;-82
2020/12/22 17:53:22;;;;;;;46.25;28.40;;;;;;;3.05;68.43;96872.58;1778515;80;21126;-83
2020/12/22 17:56:32;;;;;;;48.30;29.27;;;;;;;3.07;68.68;96871.17;1774864;80;21171;-82
2020/12/22 17:59:02;;;;;;;49.98;30.55;;;;;;;3.10;68.81;96868.39;1778108;80;21131;-82
2020/12/22 18:01:40;;;;;;;52.58;31.15;;;;;;;3.08;69.13;96861.96;1778485;80;21135;-83
2020/12/22 18:04:33;;;;;;;57.65;35.00;;;;;;;3.10;69.29;96865.79;1777850;79;21095;-83
2020/12/22 18:07:35;;;;;;;57.08;35.35;;;;;;;3.11;69.51;96858.34;1778357;80;21071;-82
2020/12/22 18:10:12;;;;;;;52.90;31.60;;;;;;;3.15;69.93;96847.66;1777203;80;21200;-81
2020/12/22 18:13:06;;;;;;;52.45;31.52;;;;;;;3.18;70.05;96849.22;1777510;80;21098;-82
2020/12/22 18:15:43;;;;;;;49.48;30.40;;;;;;;3.24;70.05;96843.63;1775272;80;21189;-85
2020/12/22 18:18:16;;;;;;;48.65;31.07;;;;;;;3.17;70.25;96847.09;1778656;80;21505;-83
2020/12/22 18:20:55;;;;;;;57.43;33.70;;;;;;;3.12;70.76;96851.74;1793850;80;21125;-83
2020/12/22 18:23:25;;;;;;;53.17;32.53;;;;;;;3.15;71.08;96841.16;1791023;80;21265;-81
2020/12/22 18:25:58;;;;;;;67.30;36.75;;;;;;;3.19;71.23;96836.10;1760425;81;21077;-82
2020/12/22 18:28:30;;;;;;;63.02;38.20;;;;;;;3.27;71.33;96843.44;1758903;81;21142;-82
2020/12/22 18:31:02;;;;;;;61.02;38.25;;;;;;;3.36;71.41;96842.01;1759795;81;21570;-82
2020/12/22 18:33:33;;;;;;;67.08;43.75;;;;;;;3.44;71.42;96843.67;1757838;81;21209;-82
2020/12/22 18:36:11;;;;;;;56.85;34.18;;;;;;;3.46;71.52;96836.59;1759355;81;21430;-83
2020/12/22 18:38:40;;;;;;;;;;;;;;;3.53;71.41;96830.51;1791963;80;21617;-82
2020/12/22 18:41:17;;;;;;;48.42;29.42;;;;;;;3.46;71.53;96824.88;1788919;80;20494;-84
2020/12/22 18:43:49;;;;;;;25.10;13.45;;;;;;;3.44;72.11;96821.55;1767549;80;21121;-82
2020/12/22 18:46:21;;;;;;;15.03;7.40;;;;;;;3.47;72.63;96814.35;1788957;80;21149;-83
2020/12/22 18:48:52;;;;;;;22.62;13.53;;;;;;;3.59;73.19;96811.41;1813668;79;21353;-82
2020/12/22 18:51:22;;;;;;;30.65;18.85;;;;;;;3.77;73.31;96811.97;1810118;78;21102;-83
2020/12/22 18:53:53;;;;;;;33.42;22.75;;;;;;;3.89;73.03;96808.55;1807309;78;21517;-82
2020/12/22 18:56:23;;;;;;;36.42;21.90;;;;;;;4.00;72.70;96808.67;1813288;79;21178;-83
2020/12/22 18:59:20;;;;;;;35.55;22.85;;;;;;;4.10;72.38;96797.64;1810348;79;21047;-81
2020/12/22 19:01:55;;;;;;;41.95;27.32;;;;;;;4.18;72.11;96810.50;1813639;79;21433;-83
2020/12/22 19:04:24;;;;;;;43.83;31.05;;;;;;;4.22;71.97;96804.16;1813290;79;21074;-81
2020/12/22 19:06:55;;;;;;;42.98;30.05;;;;;;;4.25;71.84;96802.63;1813901;79;21031;-80
2020/12/22 19:09:24;;;;;;;44.20;27.60;;;;;;;4.28;71.45;96797.21;1814160;79;21046;-84
2020/12/22 19:11:54;;;;;;;41.25;24.85;;;;;;;4.25;71.09;96792.67;1817540;79;21067;-80
2020/12/22 19:14:24;;;;;;;37.58;25.17;;;;;;;4.20;71.05;96795.58;1818482;78;21206;-84
2020/12/22 19:16:55;;;;;;;48.98;34.38;;;;;;;4.17;70.98;96802.32;1818679;79;21137;-82
2020/12/22 19:19:26;;;;;;;47.27;33.30;;;;;;;4.06;71.07;96800.08;1785019;80;32949;-81
2020/12/22 19:21:56;;;;;;;46.18;28.90;;;;;;;4.01;71.55;96784.75;1806923;79;21035;-83
2020/12/22 19:24:25;;;;;;;46.83;31.80;;;;;;;4.06;71.57;96790.48;1806975;79;21103;-81
2020/12/22 19:26:55;;;;;;;39.90;26.75;;;;;;;4.07;71.27;96792.15;1808482;78;21377;-81
2020/12/22 19:29:26;;;;;;;36.30;24.07;;;;;;;3.97;71.30;96793.70;1809727;78;21061;-83
2020/12/22 19:31:57;;;;;;;34.53;23.80;;;;;;;3.93;71.52;96787.05;1808151;78;21285;-80
2020/12/22 19:34:28;;;;;;;46.30;29.37;;;;;;;3.96;71.51;96781.61;1807475;79;21141;-80
2020/12/22 19:36:59;;;;;;;42.85;27.82;;;;;;;4.00;71.66;96790.91;1807134;79;21047;-82
2020/12/22 19:39:28;;;;;;;44.60;27.02;;;;;;;4.03;71.64;96784.16;1807607;78;22112;-82
2020/12/22 19:41:57;;;;;;;43.05;28.67;;;;;;;3.99;71.74;96786.63;1808363;79;21500;-80
2020/12/22 19:44:30;;;;;;;49.13;30.25;;;;;;;3.95;71.91;96791.20;1808012;78;21126;-81
2020/12/22 19:47:01;;;;;;;51.58;32.08;;;;;;;3.94;72.04;96784.80;1807854;78;21146;-81
2020/12/22 19:49:32;;;;;;;52.75;32.38;;;;;;;3.93;72.34;96783.14;1808578;78;21130;-80
2020/12/22 19:52:02;;;;;;;54.80;34.15;;;;;;;3.94;72.49;96782.20;1807805;78;21207;-81
2020/12/22 19:54:31;;;;;;;55.05;31.52;;;;;;;3.95;72.43;96786.47;1807599;78;21123;-81
2020/12/22 19:57:01;;;;;;;60.30;32.28;;;;;;;3.93;72.24;96785.75;1808650;79;21597;-80
2020/12/22 19:59:30;;;;;;;58.63;31.30;;;;;;;3.82;72.36;96783.02;1809163;78;21154;-82
2020/12/22 20:02:01;;;;;;;62.60;33.45;;;;;;;3.78;72.61;96771.96;1809845;78;21119;-82
2020/12/22 20:04:29;;;;;;;63.83;32.40;;;;;;;3.81;72.67;96767.03;1808072;78;21396;-81
2020/12/22 20:07:17;;;;;;;53.48;30.52;;;;;;;3.85;72.84;96769.78;1807591;78;21031;-82
2020/12/22 20:09:46;;;;;;;58.35;34.50;;;;;;;3.92;72.60;96771.06;1807635;78;21679;-82
2020/12/22 20:12:17;;;;;;;55.08;33.00;;;;;;;3.90;72.61;96769.83;1813180;79;21222;-82
2020/12/22 20:14:49;;;;;;;69.07;34.75;;;;;;;3.89;72.61;96759.53;1813205;79;21016;-83
2020/12/22 20:17:20;;;;;;;66.97;36.17;;;;;;;3.88;72.56;96756.09;1814542;79;21477;-81
2020/12/22 20:19:49;;;;;;;70.50;37.17;;;;;;;3.86;72.73;96755.38;1814331;78;21173;-82
2020/12/22 20:22:19;;;;;;;74.62;36.80;;;;;;;3.83;72.68;96749.52;1814310;78;21159;-83
2020/12/22 20:24:48;;;;;;;66.60;39.13;;;;;;;3.77;72.88;96749.47;1814908;79;21821;-82
2020/12/22 20:27:22;;;;;;;83.00;44.33;;;;;;;3.78;73.17;96741.18;1814718;79;21142;-83
2020/12/22 20:29:54;;;;;;;86.05;47.45;;;;;;;3.83;73.25;96740.41;1814732;79;21256;-81
2020/12/22 20:32:24;;;;;;;80.95;47.15;;;;;;;3.90;73.26;96739.05;1815422;79;21055;-82
2020/12/22 20:35:33;;;;;;;99.75;53.65;;;;;;;3.94;73.13;96736.61;1814789;79;21116;-84
2020/12/22 20:38:18;;;;;;;95.92;51.37;;;;;;;3.88;73.27;96735.25;1814725;79;21043;-83
2020/12/22 20:40:49;;;;;;;96.70;52.03;;;;;;;3.89;73.36;96734.78;1814925;79;21185;-82